sensor_id;sensor_type;location;lat;lon;timestamp;P1;durP1;ratioP1;P2;durP2;ratioP2
48403;SDS011;34202;52.536;6.042;2023-09-30T00:01:20;16.90;;;3.90;;
48403;SDS011;34202;52.536;6.042;2023-09-30T00:06:22;10.10;;;3.10;;
48403;SDS011;34202;52.536;6.042;2023-09-30T00:11:22;10.40;;;2.90;;
48403;SDS011;34202;52.536;6.042;2023-09-30T00:16:22;21.00;;;4.50;;
48403;SDS011;34202;52.536;6.042;2023-09-30T00:21:23;13.50;;;3.60;;
48403;SDS011;34202;52.536;6.042;2023-09-30T00:26:24;12.80;;;3.90;;
48403;SDS011;34202;52.536;6.042;2023-09-30T00:31:24;11.90;;;3.40;;
48403;SDS011;34202;52.536;6.042;2023-09-30T00:36:25;12.70;;;3.50;;
48403;SDS011;34202;52.536;6.042;2023-09-30T00:41:25;16.90;;;3.80;;
48403;SDS011;34202;52.536;6.042;2023-09-30T00:46:29;10.30;;;3.20;;
48403;SDS011;34202;52.536;6.042;2023-09-30T00:51:31;13.30;;;3.80;;
48403;SDS011;34202;52.536;6.042;2023-09-30T00:56:33;13.40;;;4.10;;
48403;SDS011;34202;52.536;6.042;2023-09-30T01:01:36;16.30;;;4.20;;
48403;SDS011;34202;52.536;6.042;2023-09-30T01:06:36;12.20;;;4.90;;
48403;SDS011;34202;52.536;6.042;2023-09-30T01:11:37;8.00;;;3.40;;
48403;SDS011;34202;52.536;6.042;2023-09-30T01:16:40;17.70;;;4.40;;
48403;SDS011;34202;52.536;6.042;2023-09-30T01:21:41;16.00;;;3.40;;
48403;SDS011;34202;52.536;6.042;2023-09-30T01:26:41;8.10;;;4.00;;
48403;SDS011;34202;52.536;6.042;2023-09-30T01:31:42;10.40;;;4.60;;
48403;SDS011;34202;52.536;6.042;2023-09-30T01:36:43;8.50;;;4.30;;
48403;SDS011;34202;52.536;6.042;2023-09-30T01:41:44;14.70;;;4.80;;
48403;SDS011;34202;52.536;6.042;2023-09-30T01:46:45;14.50;;;6.00;;
48403;SDS011;34202;52.536;6.042;2023-09-30T01:51:45;13.20;;;5.30;;
48403;SDS011;34202;52.536;6.042;2023-09-30T01:56:46;9.90;;;4.80;;
48403;SDS011;34202;52.536;6.042;2023-09-30T02:01:47;12.00;;;4.80;;
48403;SDS011;34202;52.536;6.042;2023-09-30T02:06:49;13.10;;;5.40;;
48403;SDS011;34202;52.536;6.042;2023-09-30T02:11:49;15.40;;;5.50;;
48403;SDS011;34202;52.536;6.042;2023-09-30T02:16:49;17.20;;;5.60;;
48403;SDS011;34202;52.536;6.042;2023-09-30T02:21:50;13.10;;;5.90;;
48403;SDS011;34202;52.536;6.042;2023-09-30T02:26:50;11.90;;;5.50;;
48403;SDS011;34202;52.536;6.042;2023-09-30T02:31:51;13.30;;;6.50;;
48403;SDS011;34202;52.536;6.042;2023-09-30T02:36:52;13.80;;;5.70;;
48403;SDS011;34202;52.536;6.042;2023-09-30T02:41:55;20.50;;;6.30;;
48403;SDS011;34202;52.536;6.042;2023-09-30T02:46:56;14.10;;;5.80;;
48403;SDS011;34202;52.536;6.042;2023-09-30T02:51:57;14.80;;;6.50;;
48403;SDS011;34202;52.536;6.042;2023-09-30T02:56:57;12.30;;;7.10;;
48403;SDS011;34202;52.536;6.042;2023-09-30T03:01:58;13.40;;;6.90;;
48403;SDS011;34202;52.536;6.042;2023-09-30T03:06:58;12.00;;;6.60;;
48403;SDS011;34202;52.536;6.042;2023-09-30T03:11:58;15.70;;;7.30;;
48403;SDS011;34202;52.536;6.042;2023-09-30T03:16:59;15.10;;;8.20;;
48403;SDS011;34202;52.536;6.042;2023-09-30T03:22:00;20.00;;;7.90;;
48403;SDS011;34202;52.536;6.042;2023-09-30T03:27:04;18.70;;;8.60;;
48403;SDS011;34202;52.536;6.042;2023-09-30T03:32:05;14.60;;;8.00;;
48403;SDS011;34202;52.536;6.042;2023-09-30T03:37:05;13.60;;;7.90;;
48403;SDS011;34202;52.536;6.042;2023-09-30T03:42:06;14.80;;;8.80;;
48403;SDS011;34202;52.536;6.042;2023-09-30T03:47:11;18.50;;;7.90;;
48403;SDS011;34202;52.536;6.042;2023-09-30T03:52:11;14.30;;;7.60;;
48403;SDS011;34202;52.536;6.042;2023-09-30T03:57:12;16.40;;;7.60;;
48403;SDS011;34202;52.536;6.042;2023-09-30T04:02:16;16.00;;;7.40;;
48403;SDS011;34202;52.536;6.042;2023-09-30T04:07:16;14.30;;;7.10;;
48403;SDS011;34202;52.536;6.042;2023-09-30T04:12:17;16.70;;;8.20;;
48403;SDS011;34202;52.536;6.042;2023-09-30T04:17:17;15.30;;;7.70;;
48403;SDS011;34202;52.536;6.042;2023-09-30T04:22:18;19.00;;;8.20;;
48403;SDS011;34202;52.536;6.042;2023-09-30T04:27:21;17.70;;;7.90;;
48403;SDS011;34202;52.536;6.042;2023-09-30T04:32:22;13.60;;;7.80;;
48403;SDS011;34202;52.536;6.042;2023-09-30T04:37:22;14.50;;;8.40;;
48403;SDS011;34202;52.536;6.042;2023-09-30T04:42:23;14.80;;;7.70;;
48403;SDS011;34202;52.536;6.042;2023-09-30T04:47:25;17.90;;;9.60;;
48403;SDS011;34202;52.536;6.042;2023-09-30T04:52:26;19.70;;;8.80;;
48403;SDS011;34202;52.536;6.042;2023-09-30T04:57:27;15.50;;;8.50;;
48403;SDS011;34202;52.536;6.042;2023-09-30T05:02:28;14.40;;;8.10;;
48403;SDS011;34202;52.536;6.042;2023-09-30T05:07:28;14.20;;;8.70;;
48403;SDS011;34202;52.536;6.042;2023-09-30T05:12:29;13.30;;;9.10;;
48403;SDS011;34202;52.536;6.042;2023-09-30T05:17:29;15.50;;;10.50;;
48403;SDS011;34202;52.536;6.042;2023-09-30T05:22:29;15.10;;;8.80;;
48403;SDS011;34202;52.536;6.042;2023-09-30T05:27:30;14.30;;;10.00;;
48403;SDS011;34202;52.536;6.042;2023-09-30T05:32:30;17.40;;;10.90;;
48403;SDS011;34202;52.536;6.042;2023-09-30T05:37:31;17.60;;;10.20;;
48403;SDS011;34202;52.536;6.042;2023-09-30T05:42:31;18.00;;;10.70;;
48403;SDS011;34202;52.536;6.042;2023-09-30T05:47:32;17.60;;;11.30;;
48403;SDS011;34202;52.536;6.042;2023-09-30T05:52:32;15.70;;;11.50;;
48403;SDS011;34202;52.536;6.042;2023-09-30T05:57:33;17.30;;;10.50;;
48403;SDS011;34202;52.536;6.042;2023-09-30T06:02:35;19.10;;;12.50;;
48403;SDS011;34202;52.536;6.042;2023-09-30T06:07:35;22.60;;;11.30;;
48403;SDS011;34202;52.536;6.042;2023-09-30T06:12:36;16.90;;;11.50;;
48403;SDS011;34202;52.536;6.042;2023-09-30T06:17:36;16.80;;;11.80;;
48403;SDS011;34202;52.536;6.042;2023-09-30T06:22:37;19.80;;;11.30;;
48403;SDS011;34202;52.536;6.042;2023-09-30T06:27:37;22.40;;;12.50;;
48403;SDS011;34202;52.536;6.042;2023-09-30T06:32:38;21.30;;;13.20;;
48403;SDS011;34202;52.536;6.042;2023-09-30T06:37:41;20.40;;;12.80;;
48403;SDS011;34202;52.536;6.042;2023-09-30T06:42:43;20.00;;;13.80;;
48403;SDS011;34202;52.536;6.042;2023-09-30T06:47:43;23.80;;;13.40;;
48403;SDS011;34202;52.536;6.042;2023-09-30T06:52:45;24.10;;;15.10;;
48403;SDS011;34202;52.536;6.042;2023-09-30T06:57:47;21.30;;;14.10;;
48403;SDS011;34202;52.536;6.042;2023-09-30T07:02:48;31.60;;;16.40;;
48403;SDS011;34202;52.536;6.042;2023-09-30T07:07:48;24.50;;;15.30;;
48403;SDS011;34202;52.536;6.042;2023-09-30T07:12:48;25.80;;;16.80;;
48403;SDS011;34202;52.536;6.042;2023-09-30T07:17:49;24.00;;;16.60;;
48403;SDS011;34202;52.536;6.042;2023-09-30T07:22:50;38.00;;;16.10;;
48403;SDS011;34202;52.536;6.042;2023-09-30T07:27:50;29.70;;;17.50;;
48403;SDS011;34202;52.536;6.042;2023-09-30T07:32:52;25.10;;;16.50;;
48403;SDS011;34202;52.536;6.042;2023-09-30T07:37:52;20.00;;;15.40;;
48403;SDS011;34202;52.536;6.042;2023-09-30T07:42:53;25.10;;;18.00;;
48403;SDS011;34202;52.536;6.042;2023-09-30T07:47:54;22.10;;;16.40;;
48403;SDS011;34202;52.536;6.042;2023-09-30T07:52:55;22.80;;;15.50;;
48403;SDS011;34202;52.536;6.042;2023-09-30T07:57:56;26.30;;;15.80;;
48403;SDS011;34202;52.536;6.042;2023-09-30T08:02:59;24.40;;;16.60;;
48403;SDS011;34202;52.536;6.042;2023-09-30T08:08:03;24.60;;;15.70;;
48403;SDS011;34202;52.536;6.042;2023-09-30T08:13:03;19.80;;;13.90;;
48403;SDS011;34202;52.536;6.042;2023-09-30T08:18:04;26.50;;;16.30;;
48403;SDS011;34202;52.536;6.042;2023-09-30T08:23:06;25.40;;;17.00;;
48403;SDS011;34202;52.536;6.042;2023-09-30T08:28:06;22.80;;;16.30;;
48403;SDS011;34202;52.536;6.042;2023-09-30T08:33:06;24.40;;;15.00;;
48403;SDS011;34202;52.536;6.042;2023-09-30T08:38:07;24.90;;;14.40;;
48403;SDS011;34202;52.536;6.042;2023-09-30T08:43:09;22.10;;;14.80;;
48403;SDS011;34202;52.536;6.042;2023-09-30T08:48:12;21.20;;;12.90;;
48403;SDS011;34202;52.536;6.042;2023-09-30T08:53:12;18.20;;;12.40;;
48403;SDS011;34202;52.536;6.042;2023-09-30T08:58:16;17.40;;;12.50;;
48403;SDS011;34202;52.536;6.042;2023-09-30T09:03:20;23.90;;;11.80;;
48403;SDS011;34202;52.536;6.042;2023-09-30T09:08:21;19.20;;;10.20;;
48403;SDS011;34202;52.536;6.042;2023-09-30T09:13:24;15.70;;;10.20;;
48403;SDS011;34202;52.536;6.042;2023-09-30T09:18:31;18.40;;;9.70;;
48403;SDS011;34202;52.536;6.042;2023-09-30T09:23:36;15.00;;;9.00;;
48403;SDS011;34202;52.536;6.042;2023-09-30T09:28:39;17.20;;;9.00;;
48403;SDS011;34202;52.536;6.042;2023-09-30T09:33:39;16.80;;;8.40;;
48403;SDS011;34202;52.536;6.042;2023-09-30T09:38:43;19.70;;;7.30;;
48403;SDS011;34202;52.536;6.042;2023-09-30T09:43:45;14.40;;;7.30;;
48403;SDS011;34202;52.536;6.042;2023-09-30T09:48:48;15.00;;;6.90;;
48403;SDS011;34202;52.536;6.042;2023-09-30T09:53:49;15.40;;;7.30;;
48403;SDS011;34202;52.536;6.042;2023-09-30T09:58:50;11.60;;;6.40;;
48403;SDS011;34202;52.536;6.042;2023-09-30T10:03:51;15.00;;;6.50;;
48403;SDS011;34202;52.536;6.042;2023-09-30T10:08:51;14.40;;;6.00;;
48403;SDS011;34202;52.536;6.042;2023-09-30T10:13:55;11.70;;;5.30;;
48403;SDS011;34202;52.536;6.042;2023-09-30T10:19:19;14.00;;;6.00;;
48403;SDS011;34202;52.536;6.042;2023-09-30T10:29:22;11.30;;;5.80;;
48403;SDS011;34202;52.536;6.042;2023-09-30T10:34:49;8.90;;;4.70;;
48403;SDS011;34202;52.536;6.042;2023-09-30T10:39:53;8.40;;;4.20;;
48403;SDS011;34202;52.536;6.042;2023-09-30T10:44:58;9.40;;;4.10;;
48403;SDS011;34202;52.536;6.042;2023-09-30T10:49:58;11.20;;;3.00;;
48403;SDS011;34202;52.536;6.042;2023-09-30T10:55:02;13.30;;;3.60;;
48403;SDS011;34202;52.536;6.042;2023-09-30T11:00:08;9.60;;;3.50;;
48403;SDS011;34202;52.536;6.042;2023-09-30T11:05:11;7.10;;;2.90;;
48403;SDS011;34202;52.536;6.042;2023-09-30T11:10:17;9.40;;;2.80;;
48403;SDS011;34202;52.536;6.042;2023-09-30T11:15:18;9.40;;;3.30;;
48403;SDS011;34202;52.536;6.042;2023-09-30T11:20:19;8.90;;;2.70;;
48403;SDS011;34202;52.536;6.042;2023-09-30T11:25:19;7.70;;;2.30;;
48403;SDS011;34202;52.536;6.042;2023-09-30T11:30:19;8.60;;;2.20;;
48403;SDS011;34202;52.536;6.042;2023-09-30T11:35:23;9.60;;;2.80;;
48403;SDS011;34202;52.536;6.042;2023-09-30T11:40:23;8.10;;;2.10;;
48403;SDS011;34202;52.536;6.042;2023-09-30T11:45:24;6.60;;;1.70;;
48403;SDS011;34202;52.536;6.042;2023-09-30T11:50:25;9.40;;;2.50;;
48403;SDS011;34202;52.536;6.042;2023-09-30T11:55:25;7.20;;;1.90;;
48403;SDS011;34202;52.536;6.042;2023-09-30T12:00:27;8.10;;;2.00;;
48403;SDS011;34202;52.536;6.042;2023-09-30T12:05:27;6.10;;;2.00;;
48403;SDS011;34202;52.536;6.042;2023-09-30T12:10:29;7.90;;;2.50;;
48403;SDS011;34202;52.536;6.042;2023-09-30T12:15:31;14.50;;;2.60;;
48403;SDS011;34202;52.536;6.042;2023-09-30T12:20:31;9.30;;;2.20;;
48403;SDS011;34202;52.536;6.042;2023-09-30T12:25:32;4.00;;;2.40;;
48403;SDS011;34202;52.536;6.042;2023-09-30T12:30:33;6.60;;;2.40;;
48403;SDS011;34202;52.536;6.042;2023-09-30T12:35:34;5.60;;;1.80;;
48403;SDS011;34202;52.536;6.042;2023-09-30T12:40:34;4.50;;;1.60;;
48403;SDS011;34202;52.536;6.042;2023-09-30T12:45:34;7.70;;;2.00;;
48403;SDS011;34202;52.536;6.042;2023-09-30T12:50:35;7.10;;;2.10;;
48403;SDS011;34202;52.536;6.042;2023-09-30T12:55:35;5.00;;;2.10;;
48403;SDS011;34202;52.536;6.042;2023-09-30T13:00:36;8.70;;;2.80;;
48403;SDS011;34202;52.536;6.042;2023-09-30T13:05:36;6.10;;;2.60;;
48403;SDS011;34202;52.536;6.042;2023-09-30T13:10:37;6.30;;;2.40;;
48403;SDS011;34202;52.536;6.042;2023-09-30T13:15:38;6.90;;;2.00;;
48403;SDS011;34202;52.536;6.042;2023-09-30T13:20:39;9.20;;;2.40;;
48403;SDS011;34202;52.536;6.042;2023-09-30T13:25:39;9.30;;;2.80;;
48403;SDS011;34202;52.536;6.042;2023-09-30T13:30:39;10.50;;;2.70;;
48403;SDS011;34202;52.536;6.042;2023-09-30T13:35:40;7.00;;;2.10;;
48403;SDS011;34202;52.536;6.042;2023-09-30T13:40:41;5.00;;;1.90;;
48403;SDS011;34202;52.536;6.042;2023-09-30T13:45:41;6.50;;;2.30;;
48403;SDS011;34202;52.536;6.042;2023-09-30T13:50:42;7.60;;;2.40;;
48403;SDS011;34202;52.536;6.042;2023-09-30T13:55:42;7.50;;;2.70;;
48403;SDS011;34202;52.536;6.042;2023-09-30T14:00:48;8.60;;;3.00;;
48403;SDS011;34202;52.536;6.042;2023-09-30T14:05:49;11.10;;;2.90;;
48403;SDS011;34202;52.536;6.042;2023-09-30T14:10:50;5.90;;;2.50;;
48403;SDS011;34202;52.536;6.042;2023-09-30T14:15:53;10.30;;;2.90;;
48403;SDS011;34202;52.536;6.042;2023-09-30T14:20:53;13.40;;;2.40;;
48403;SDS011;34202;52.536;6.042;2023-09-30T14:25:54;7.60;;;2.50;;
48403;SDS011;34202;52.536;6.042;2023-09-30T14:31:02;13.90;;;3.30;;
48403;SDS011;34202;52.536;6.042;2023-09-30T14:36:04;9.90;;;3.20;;
48403;SDS011;34202;52.536;6.042;2023-09-30T14:41:07;9.00;;;3.10;;
48403;SDS011;34202;52.536;6.042;2023-09-30T14:46:12;6.20;;;2.20;;
48403;SDS011;34202;52.536;6.042;2023-09-30T14:51:12;8.90;;;2.50;;
48403;SDS011;34202;52.536;6.042;2023-09-30T14:56:16;11.50;;;3.10;;
48403;SDS011;34202;52.536;6.042;2023-09-30T15:01:17;7.00;;;2.80;;
48403;SDS011;34202;52.536;6.042;2023-09-30T15:06:20;8.20;;;2.30;;
48403;SDS011;34202;52.536;6.042;2023-09-30T15:11:24;8.40;;;2.20;;
48403;SDS011;34202;52.536;6.042;2023-09-30T15:16:24;8.60;;;2.40;;
48403;SDS011;34202;52.536;6.042;2023-09-30T15:21:25;9.00;;;2.90;;
48403;SDS011;34202;52.536;6.042;2023-09-30T15:26:26;7.10;;;2.40;;
48403;SDS011;34202;52.536;6.042;2023-09-30T15:31:27;11.30;;;3.50;;
48403;SDS011;34202;52.536;6.042;2023-09-30T15:41:32;8.10;;;2.30;;
48403;SDS011;34202;52.536;6.042;2023-09-30T15:46:33;9.70;;;3.40;;
48403;SDS011;34202;52.536;6.042;2023-09-30T15:51:34;9.30;;;3.70;;
48403;SDS011;34202;52.536;6.042;2023-09-30T15:56:35;10.90;;;3.80;;
48403;SDS011;34202;52.536;6.042;2023-09-30T16:01:35;5.50;;;2.80;;
48403;SDS011;34202;52.536;6.042;2023-09-30T16:06:35;6.60;;;3.30;;
48403;SDS011;34202;52.536;6.042;2023-09-30T16:11:36;9.90;;;3.90;;
48403;SDS011;34202;52.536;6.042;2023-09-30T16:16:36;7.50;;;2.70;;
48403;SDS011;34202;52.536;6.042;2023-09-30T16:21:37;8.90;;;3.00;;
48403;SDS011;34202;52.536;6.042;2023-09-30T16:26:37;11.20;;;3.10;;
48403;SDS011;34202;52.536;6.042;2023-09-30T16:31:37;7.10;;;3.10;;
48403;SDS011;34202;52.536;6.042;2023-09-30T16:36:38;9.80;;;3.30;;
48403;SDS011;34202;52.536;6.042;2023-09-30T16:41:39;5.70;;;2.70;;
48403;SDS011;34202;52.536;6.042;2023-09-30T16:46:40;7.70;;;3.70;;
48403;SDS011;34202;52.536;6.042;2023-09-30T16:51:40;8.20;;;2.90;;
48403;SDS011;34202;52.536;6.042;2023-09-30T16:56:41;10.00;;;3.50;;
48403;SDS011;34202;52.536;6.042;2023-09-30T17:01:41;9.00;;;3.00;;
48403;SDS011;34202;52.536;6.042;2023-09-30T17:06:42;11.10;;;4.10;;
48403;SDS011;34202;52.536;6.042;2023-09-30T17:11:42;10.60;;;3.40;;
48403;SDS011;34202;52.536;6.042;2023-09-30T17:16:43;12.90;;;3.80;;
48403;SDS011;34202;52.536;6.042;2023-09-30T17:21:43;11.70;;;4.20;;
48403;SDS011;34202;52.536;6.042;2023-09-30T17:26:44;10.10;;;3.70;;
48403;SDS011;34202;52.536;6.042;2023-09-30T17:31:46;10.50;;;3.90;;
48403;SDS011;34202;52.536;6.042;2023-09-30T17:36:46;9.70;;;4.50;;
48403;SDS011;34202;52.536;6.042;2023-09-30T17:41:48;12.40;;;4.20;;
48403;SDS011;34202;52.536;6.042;2023-09-30T17:46:49;9.60;;;4.20;;
48403;SDS011;34202;52.536;6.042;2023-09-30T17:51:49;9.90;;;4.00;;
48403;SDS011;34202;52.536;6.042;2023-09-30T17:56:50;9.20;;;4.20;;
48403;SDS011;34202;52.536;6.042;2023-09-30T18:01:50;10.80;;;4.00;;
48403;SDS011;34202;52.536;6.042;2023-09-30T18:06:50;12.60;;;4.20;;
48403;SDS011;34202;52.536;6.042;2023-09-30T18:11:51;7.90;;;3.90;;
48403;SDS011;34202;52.536;6.042;2023-09-30T18:16:53;11.60;;;3.00;;
48403;SDS011;34202;52.536;6.042;2023-09-30T18:21:53;11.00;;;3.90;;
48403;SDS011;34202;52.536;6.042;2023-09-30T18:26:53;13.70;;;6.10;;
48403;SDS011;34202;52.536;6.042;2023-09-30T18:31:54;9.40;;;3.70;;
48403;SDS011;34202;52.536;6.042;2023-09-30T18:36:54;11.20;;;3.90;;
48403;SDS011;34202;52.536;6.042;2023-09-30T18:41:55;12.10;;;5.20;;
48403;SDS011;34202;52.536;6.042;2023-09-30T18:46:55;14.20;;;6.80;;
48403;SDS011;34202;52.536;6.042;2023-09-30T18:51:55;11.80;;;5.20;;
48403;SDS011;34202;52.536;6.042;2023-09-30T18:56:56;20.10;;;5.90;;
48403;SDS011;34202;52.536;6.042;2023-09-30T19:01:56;17.90;;;7.10;;
48403;SDS011;34202;52.536;6.042;2023-09-30T19:06:57;18.20;;;6.80;;
48403;SDS011;34202;52.536;6.042;2023-09-30T19:11:58;14.90;;;6.70;;
48403;SDS011;34202;52.536;6.042;2023-09-30T19:16:58;14.80;;;6.60;;
48403;SDS011;34202;52.536;6.042;2023-09-30T19:21:59;12.20;;;6.10;;
48403;SDS011;34202;52.536;6.042;2023-09-30T19:26:59;11.80;;;6.40;;
48403;SDS011;34202;52.536;6.042;2023-09-30T19:31:59;13.30;;;5.90;;
48403;SDS011;34202;52.536;6.042;2023-09-30T19:37:00;13.30;;;6.50;;
48403;SDS011;34202;52.536;6.042;2023-09-30T19:42:01;15.40;;;6.70;;
48403;SDS011;34202;52.536;6.042;2023-09-30T19:47:01;13.70;;;6.50;;
48403;SDS011;34202;52.536;6.042;2023-09-30T19:52:02;13.30;;;7.20;;
48403;SDS011;34202;52.536;6.042;2023-09-30T19:57:04;11.00;;;6.40;;
48403;SDS011;34202;52.536;6.042;2023-09-30T20:02:06;15.80;;;7.10;;
48403;SDS011;34202;52.536;6.042;2023-09-30T20:07:07;17.50;;;8.50;;
48403;SDS011;34202;52.536;6.042;2023-09-30T20:12:08;20.60;;;10.90;;
48403;SDS011;34202;52.536;6.042;2023-09-30T20:17:10;23.20;;;10.60;;
48403;SDS011;34202;52.536;6.042;2023-09-30T20:22:11;16.30;;;8.70;;
48403;SDS011;34202;52.536;6.042;2023-09-30T20:27:11;15.50;;;8.40;;
48403;SDS011;34202;52.536;6.042;2023-09-30T20:32:12;15.10;;;9.50;;
48403;SDS011;34202;52.536;6.042;2023-09-30T20:37:12;16.50;;;9.30;;
48403;SDS011;34202;52.536;6.042;2023-09-30T20:42:12;19.40;;;9.10;;
48403;SDS011;34202;52.536;6.042;2023-09-30T20:47:13;18.20;;;9.10;;
48403;SDS011;34202;52.536;6.042;2023-09-30T20:52:14;13.90;;;8.30;;
48403;SDS011;34202;52.536;6.042;2023-09-30T20:57:14;19.30;;;9.50;;
48403;SDS011;34202;52.536;6.042;2023-09-30T21:02:15;18.00;;;9.70;;
48403;SDS011;34202;52.536;6.042;2023-09-30T21:07:17;19.20;;;10.60;;
48403;SDS011;34202;52.536;6.042;2023-09-30T21:12:17;19.80;;;9.60;;
48403;SDS011;34202;52.536;6.042;2023-09-30T21:17:17;18.90;;;9.20;;
48403;SDS011;34202;52.536;6.042;2023-09-30T21:22:18;20.60;;;9.60;;
48403;SDS011;34202;52.536;6.042;2023-09-30T21:27:19;17.70;;;10.40;;
48403;SDS011;34202;52.536;6.042;2023-09-30T21:32:19;21.50;;;10.60;;
48403;SDS011;34202;52.536;6.042;2023-09-30T21:37:20;19.10;;;10.50;;
48403;SDS011;34202;52.536;6.042;2023-09-30T21:42:20;19.40;;;10.10;;
48403;SDS011;34202;52.536;6.042;2023-09-30T21:47:21;18.60;;;9.90;;
48403;SDS011;34202;52.536;6.042;2023-09-30T21:52:21;15.30;;;8.60;;
48403;SDS011;34202;52.536;6.042;2023-09-30T21:57:21;18.10;;;7.80;;
48403;SDS011;34202;52.536;6.042;2023-09-30T22:02:22;17.20;;;8.20;;
48403;SDS011;34202;52.536;6.042;2023-09-30T22:07:22;14.70;;;7.40;;
48403;SDS011;34202;52.536;6.042;2023-09-30T22:12:25;18.10;;;8.30;;
48403;SDS011;34202;52.536;6.042;2023-09-30T22:17:27;17.30;;;7.10;;
48403;SDS011;34202;52.536;6.042;2023-09-30T22:22:27;13.00;;;7.40;;
48403;SDS011;34202;52.536;6.042;2023-09-30T22:27:31;13.50;;;7.90;;
48403;SDS011;34202;52.536;6.042;2023-09-30T22:32:32;10.30;;;6.60;;
48403;SDS011;34202;52.536;6.042;2023-09-30T22:37:32;18.00;;;6.20;;
48403;SDS011;34202;52.536;6.042;2023-09-30T22:42:33;16.70;;;7.20;;
48403;SDS011;34202;52.536;6.042;2023-09-30T22:47:43;14.70;;;5.40;;
48403;SDS011;34202;52.536;6.042;2023-09-30T22:52:48;11.70;;;5.20;;
48403;SDS011;34202;52.536;6.042;2023-09-30T22:57:49;14.80;;;5.30;;
48403;SDS011;34202;52.536;6.042;2023-09-30T23:02:50;12.90;;;5.80;;
48403;SDS011;34202;52.536;6.042;2023-09-30T23:07:51;12.80;;;5.90;;
48403;SDS011;34202;52.536;6.042;2023-09-30T23:12:51;13.00;;;5.00;;
48403;SDS011;34202;52.536;6.042;2023-09-30T23:17:51;11.40;;;5.70;;
48403;SDS011;34202;52.536;6.042;2023-09-30T23:22:52;15.10;;;5.60;;
48403;SDS011;34202;52.536;6.042;2023-09-30T23:27:54;12.00;;;6.70;;
48403;SDS011;34202;52.536;6.042;2023-09-30T23:32:56;12.20;;;6.20;;
48403;SDS011;34202;52.536;6.042;2023-09-30T23:37:58;12.80;;;6.50;;
48403;SDS011;34202;52.536;6.042;2023-09-30T23:43:01;14.50;;;6.60;;
48403;SDS011;34202;52.536;6.042;2023-09-30T23:48:03;12.40;;;6.70;;
48403;SDS011;34202;52.536;6.042;2023-09-30T23:53:05;8.20;;;6.30;;
48403;SDS011;34202;52.536;6.042;2023-09-30T23:58:06;12.30;;;6.50;;
